createdAt,value
2019-02-23T00:00:49.139Z,95286.17
2019-02-23T00:03:15.135Z,95293.45
2019-02-23T00:05:41.265Z,95301.33
2019-02-23T00:08:07.266Z,95315.05
2019-02-23T00:10:33.263Z,95323.16
2019-02-23T00:12:59.260Z,95351.63
2019-02-23T00:15:25.257Z,95358.70
2019-02-23T00:17:51.263Z,95365.35
2019-02-23T00:20:17.254Z,95383.58
2019-02-23T00:22:43.252Z,95381.75
2019-02-23T00:25:09.246Z,95383.58
2019-02-23T00:27:35.247Z,95396.89
2019-02-23T00:30:01.252Z,95411.63
2019-02-23T00:32:27.247Z,95434.27
2019-02-23T00:34:53.247Z,95441.87
2019-02-23T00:37:19.244Z,95443.09
2019-02-23T00:39:45.244Z,95455.08
2019-02-23T00:42:11.241Z,95464.39
2019-02-23T00:44:37.262Z,95485.81
2019-02-23T00:47:03.262Z,95488.86
2019-02-23T00:49:36.275Z,95500.05
2019-02-23T00:51:55.323Z,95499.33
2019-02-23T00:54:21.262Z,95512.75
2019-02-23T00:56:47.263Z,95514.08
2019-02-23T00:59:13.254Z,95521.34
2019-02-23T01:01:39.256Z,95539.46
2019-02-23T01:04:05.270Z,95542.13
2019-02-23T01:06:31.283Z,95551.87
2019-02-23T01:08:57.281Z,95568.77
2019-02-23T01:11:23.286Z,95564.05
2019-02-23T01:13:49.288Z,95564.95
2019-02-23T01:16:15.289Z,95574.70
2019-02-23T01:18:41.284Z,95580.02
2019-02-23T01:21:07.283Z,95584.44
2019-02-23T01:23:33.278Z,95584.93
2019-02-23T01:25:59.271Z,95583.60
2019-02-23T01:28:25.276Z,95593.34
2019-02-23T01:30:51.270Z,95587.20
2019-02-23T01:33:17.268Z,95597.94
2019-02-23T01:35:43.260Z,95596.11
2019-02-23T01:38:09.255Z,95612.89
2019-02-23T01:40:35.263Z,95608.59
2019-02-23T01:43:01.257Z,95612.52
2019-02-23T01:45:27.290Z,95619.25
2019-02-23T01:47:53.283Z,95624.08
2019-02-23T01:50:19.293Z,95627.66
2019-02-23T01:52:45.294Z,95626.74
2019-02-23T01:55:11.313Z,95633.48
2019-02-23T01:57:37.319Z,95639.64
2019-02-23T02:00:03.318Z,95629.06
2019-02-23T02:02:29.317Z,95637.89
2019-02-23T02:04:55.310Z,95646.38
2019-02-23T02:07:21.310Z,95645.98
2019-02-23T02:09:47.305Z,95655.70
2019-02-23T02:12:13.307Z,95662.36
2019-02-23T02:14:39.301Z,95668.21
2019-02-23T02:17:05.310Z,95672.70
2019-02-23T02:19:31.301Z,95674.76
2019-02-23T02:21:57.291Z,95688.61
2019-02-23T02:24:23.292Z,95694.50
2019-02-23T02:26:49.291Z,95701.92
2019-02-23T02:29:15.291Z,95705.99
2019-02-23T02:31:41.289Z,95714.81
2019-02-23T02:34:07.294Z,95718.47
2019-02-23T02:36:33.290Z,95724.63
2019-02-23T02:38:59.296Z,95728.13
2019-02-23T02:41:25.298Z,95728.21
2019-02-23T02:43:51.300Z,95733.36
2019-02-23T02:46:17.306Z,95740.13
2019-02-23T02:48:43.310Z,95742.37
2019-02-23T02:51:09.299Z,95745.52
2019-02-23T02:53:35.301Z,95756.78
2019-02-23T02:56:01.301Z,95771.35
2019-02-23T02:58:27.299Z,95770.02
2019-02-23T03:00:53.290Z,95775.34
2019-02-23T03:03:19.294Z,95778.09
2019-02-23T03:05:45.286Z,95787.41
2019-02-23T03:08:11.295Z,95792.31
2019-02-23T03:10:37.292Z,95793.23
2019-02-23T03:13:03.299Z,95789.66
2019-02-23T03:15:29.293Z,95790.18
2019-02-23T03:17:55.290Z,95797.15
2019-02-23T03:20:21.297Z,95797.15
2019-02-23T03:22:47.289Z,95802.48
2019-02-23T03:25:13.288Z,95798.91
2019-02-23T03:27:39.289Z,95797.64
2019-02-23T03:30:05.288Z,95799.58
2019-02-23T03:32:31.281Z,95797.33
2019-02-23T03:34:57.280Z,95803.58
2019-02-23T03:37:23.274Z,95807.15
2019-02-23T03:39:49.276Z,95816.28
2019-02-23T03:42:15.274Z,95813.31
2019-02-23T03:44:41.274Z,95823.13
2019-02-23T03:47:07.270Z,95825.38
2019-02-23T03:49:33.286Z,95816.05
2019-02-23T03:51:59.279Z,95826.32
2019-02-23T03:54:25.276Z,95827.65
2019-02-23T03:56:51.274Z,95826.21
2019-02-23T03:59:17.273Z,95833.70
2019-02-23T04:01:43.329Z,95834.30
2019-02-23T04:04:09.325Z,95838.30
2019-02-23T04:06:35.328Z,95844.96
2019-02-23T04:09:02.807Z,95852.95
2019-02-23T04:11:27.356Z,95843.52
2019-02-23T04:13:53.352Z,95846.68
2019-02-23T04:16:19.352Z,95853.34
2019-02-23T04:18:45.345Z,95862.77
2019-02-23T04:21:11.452Z,95877.41
2019-02-23T04:23:37.423Z,95882.33
2019-02-23T04:26:03.421Z,95883.76
2019-02-23T04:28:29.426Z,95887.16
2019-02-23T04:30:55.433Z,95901.80
2019-02-23T04:33:21.427Z,95908.04
2019-02-23T04:35:47.424Z,95902.72
2019-02-23T04:38:13.422Z,95905.88
2019-02-23T04:40:39.418Z,95913.37
2019-02-23T04:43:05.445Z,95911.20
2019-02-23T04:45:31.443Z,95913.78
2019-02-23T04:47:57.444Z,95920.94
2019-02-23T04:50:23.487Z,95926.19
2019-02-23T04:52:49.484Z,95916.94
2019-02-23T04:55:15.491Z,95923.53
2019-02-23T04:57:41.491Z,95925.11
2019-02-23T05:00:07.533Z,95939.51
2019-02-23T05:02:33.530Z,95944.31
2019-02-23T05:04:59.526Z,95943.50
2019-02-23T05:07:25.524Z,95941.57
2019-02-23T05:09:51.530Z,95950.16
2019-02-23T05:12:17.535Z,95952.41
2019-02-23T05:14:43.545Z,95953.63
2019-02-23T05:17:09.543Z,95960.89
2019-02-23T05:19:35.547Z,95967.23
2019-02-23T05:22:01.544Z,95979.45
2019-02-23T05:24:27.543Z,95982.69
2019-02-23T05:26:53.539Z,95992.95
2019-02-23T05:29:19.530Z,95997.75
2019-02-23T05:31:45.535Z,96004.00
2019-02-23T05:34:11.536Z,96013.42
2019-02-23T05:36:38.229Z,96025.30
2019-02-23T05:39:04.294Z,96033.89
2019-02-23T05:41:30.294Z,96046.72
2019-02-23T05:43:56.301Z,96056.53
2019-02-23T05:46:22.328Z,96055.69
2019-02-23T05:48:48.377Z,96061.44
2019-02-23T05:51:15.398Z,96064.02
2019-02-23T05:53:41.400Z,96059.53
2019-02-23T05:56:07.395Z,96068.33
2019-02-23T05:58:33.410Z,96083.29
2019-02-23T06:00:59.402Z,96086.13
2019-02-23T06:03:25.400Z,96088.55
2019-02-23T06:05:51.406Z,96089.47
2019-02-23T06:08:17.453Z,96093.46
2019-02-23T06:10:44.733Z,96097.98
2019-02-23T06:13:09.773Z,96102.29
2019-02-23T06:15:35.793Z,96107.94
2019-02-23T06:18:01.833Z,96111.13
2019-02-23T06:20:28.410Z,96120.45
2019-02-23T06:22:54.402Z,96125.67
2019-02-23T06:25:20.703Z,96126.50
2019-02-23T06:27:46.698Z,96134.08
2019-02-23T06:30:12.696Z,96153.14
2019-02-23T06:32:38.700Z,96154.72
2019-02-23T06:35:04.722Z,96150.38
2019-02-23T06:37:30.744Z,96156.97
2019-02-23T06:39:57.557Z,96166.18
2019-02-23T06:42:23.580Z,96157.59
2019-02-23T06:44:49.609Z,96167.27
2019-02-23T06:47:15.617Z,96172.07
2019-02-23T06:49:41.717Z,96176.41
2019-02-23T06:52:07.824Z,96189.00
2019-02-23T06:54:33.827Z,96184.58
2019-02-23T06:56:59.826Z,96186.83
2019-02-23T06:59:25.854Z,96184.66
2019-02-23T07:01:51.825Z,96185.56
2019-02-23T07:04:17.839Z,96191.31
2019-02-23T07:06:43.827Z,96198.98
2019-02-23T07:09:09.828Z,96192.92
2019-02-23T07:11:35.830Z,96200.00
2019-02-23T07:14:01.836Z,96204.98
2019-02-23T07:16:27.834Z,96210.73
2019-02-23T07:18:53.930Z,96204.98
2019-02-23T07:21:19.920Z,96220.37
2019-02-23T07:23:45.926Z,96219.45
2019-02-23T07:26:11.927Z,96222.44
2019-02-23T07:28:37.926Z,96223.73
2019-02-23T07:31:03.926Z,96226.16
2019-02-23T07:33:33.095Z,96227.66
2019-02-23T07:35:56.197Z,96231.17
2019-02-23T07:38:22.190Z,96232.61
2019-02-23T07:40:48.193Z,96238.50
2019-02-23T07:43:14.201Z,96238.91
2019-02-23T07:45:41.416Z,96245.67
2019-02-23T07:48:08.386Z,96240.34
2019-02-23T07:50:34.390Z,96248.41
2019-02-23T07:53:06.571Z,96258.08
2019-02-23T07:55:32.588Z,96255.91
2019-02-23T07:57:58.581Z,96259.98
2019-02-23T08:00:24.621Z,96259.66
2019-02-23T08:02:52.832Z,96277.82
2019-02-23T08:05:19.602Z,96283.39
2019-02-23T08:07:45.612Z,96280.41
2019-02-23T08:10:11.619Z,96286.58
2019-02-23T08:12:41.363Z,96292.22
2019-02-23T08:15:08.834Z,96286.89
2019-02-23T08:17:35.827Z,96295.30
2019-02-23T08:20:01.826Z,96300.70
2019-02-23T08:22:37.077Z,96301.87
2019-02-23T08:24:53.823Z,96305.20
2019-02-23T08:27:19.837Z,96307.71
2019-02-23T08:29:45.836Z,96309.53
2019-02-23T08:32:11.848Z,96316.27
2019-02-23T08:34:37.842Z,96316.37
2019-02-23T08:37:03.863Z,96329.02
2019-02-23T08:39:29.965Z,96336.77
2019-02-23T08:41:56.348Z,96343.42
2019-02-23T08:44:22.356Z,96349.34
2019-02-23T08:46:48.367Z,96353.98
2019-02-23T08:49:14.413Z,96358.40
2019-02-23T08:51:40.557Z,96351.84
2019-02-23T08:54:06.579Z,96352.33
2019-02-23T08:56:32.606Z,96354.82
2019-02-23T08:58:58.790Z,96355.83
2019-02-23T09:01:25.122Z,96357.16
2019-02-23T09:03:51.149Z,96355.48
2019-02-23T09:06:17.173Z,96344.02
2019-02-23T09:08:43.229Z,96342.75
2019-02-23T09:11:09.182Z,96348.92
2019-02-23T09:13:35.185Z,96372.48
2019-02-23T09:16:01.190Z,96377.80
2019-02-23T09:18:27.199Z,96378.48
2019-02-23T09:20:53.214Z,96382.69
2019-02-23T09:23:19.211Z,96379.12
2019-02-23T09:25:45.215Z,96381.29
2019-02-23T09:28:11.214Z,96397.34
2019-02-23T09:30:37.252Z,96387.70
2019-02-23T09:33:03.253Z,96386.79
2019-02-23T09:35:29.254Z,96393.13
2019-02-23T09:37:55.253Z,96395.86
2019-02-23T09:40:21.328Z,96398.45
2019-02-23T09:42:47.343Z,96400.28
2019-02-23T09:45:13.338Z,96402.94
2019-02-23T09:47:39.375Z,96402.52
2019-02-23T09:50:05.367Z,96416.69
2019-02-23T09:52:31.368Z,96417.17
2019-02-23T09:54:57.375Z,96415.67
2019-02-23T09:57:23.430Z,96416.52
2019-02-23T09:59:49.432Z,96416.52
2019-02-23T10:02:15.460Z,96417.59
2019-02-23T10:04:41.462Z,96413.50
2019-02-23T10:07:07.499Z,96418.44
2019-02-23T10:09:33.513Z,96413.11
2019-02-23T10:11:59.779Z,96418.92
2019-02-23T10:14:25.795Z,96418.99
2019-02-23T10:16:51.798Z,96416.85
2019-02-23T10:19:17.923Z,96426.24
2019-02-23T10:21:43.941Z,96421.50
2019-02-23T10:24:09.937Z,96420.33
2019-02-23T10:26:36.124Z,96420.58
2019-02-23T10:29:02.090Z,96422.92
2019-02-23T10:31:28.135Z,96423.24
2019-02-23T10:33:54.270Z,96423.17
2019-02-23T10:36:20.397Z,96422.16
2019-02-23T10:38:46.407Z,96415.92
2019-02-23T10:41:12.438Z,96421.25
2019-02-23T10:43:38.439Z,96422.48
2019-02-23T10:46:04.485Z,96426.41
2019-02-23T10:48:30.487Z,96433.64
2019-02-23T10:50:56.487Z,96429.05
2019-02-23T10:53:32.386Z,96424.14
2019-02-23T10:55:48.489Z,96421.66
2019-02-23T10:58:14.495Z,96434.64
2019-02-23T11:00:40.515Z,96424.65
2019-02-23T11:03:06.509Z,96421.64
2019-02-23T11:05:32.510Z,96423.14
2019-02-23T11:07:58.513Z,96425.89
2019-02-23T11:10:24.541Z,96431.81
2019-02-23T11:12:50.541Z,96434.14
2019-02-23T11:15:16.545Z,96440.61
2019-02-23T11:17:42.650Z,96437.72
2019-02-23T11:20:08.648Z,96430.30
2019-02-23T11:22:34.657Z,96424.52
2019-02-23T11:25:00.657Z,96422.45
2019-02-23T11:27:26.674Z,96426.69
2019-02-23T11:29:52.670Z,96432.59
2019-02-23T11:32:18.673Z,96435.94
2019-02-23T11:34:44.671Z,96444.28
2019-02-23T11:37:10.668Z,96426.37
2019-02-23T11:39:36.678Z,96437.84
2019-02-23T11:42:02.687Z,96432.45
2019-02-23T11:44:28.690Z,96442.84
2019-02-23T11:47:01.765Z,96446.10
2019-02-23T11:49:20.697Z,96438.62
2019-02-23T11:51:46.690Z,96436.34
2019-02-23T11:54:12.710Z,96450.59
2019-02-23T11:56:38.708Z,96441.60
2019-02-23T11:59:04.731Z,96439.51
2019-02-23T12:01:30.736Z,96451.50
2019-02-23T12:03:56.757Z,96455.25
2019-02-23T12:06:22.765Z,96446.78
2019-02-23T12:08:48.754Z,96453.27
2019-02-23T12:11:14.790Z,96451.41
2019-02-23T12:13:40.825Z,96455.64
2019-02-23T12:16:06.826Z,96455.15
2019-02-23T12:18:32.823Z,96455.15
2019-02-23T12:20:58.824Z,96448.55
2019-02-23T12:23:24.826Z,96452.91
2019-02-23T12:25:50.847Z,96457.64
2019-02-23T12:28:16.842Z,96452.95
2019-02-23T12:30:42.840Z,96463.38
2019-02-23T12:33:08.854Z,96456.62
2019-02-23T12:35:34.848Z,96459.13
2019-02-23T12:38:00.847Z,96461.56
2019-02-23T12:40:26.847Z,96454.94
2019-02-23T12:42:52.850Z,96457.72
2019-02-23T12:45:18.865Z,96452.45
2019-02-23T12:47:44.870Z,96452.77
2019-02-23T12:50:10.866Z,96455.28
2019-02-23T12:52:36.911Z,96466.86
2019-02-23T12:55:02.917Z,96463.52
2019-02-23T12:57:28.910Z,96475.84
2019-02-23T12:59:54.943Z,96470.90
2019-02-23T13:02:20.954Z,96478.45
2019-02-23T13:04:46.968Z,96477.27
2019-02-23T13:07:12.970Z,96472.28
2019-02-23T13:09:38.980Z,96478.61
2019-02-23T13:12:04.989Z,96475.75
2019-02-23T13:14:30.987Z,96473.56
2019-02-23T13:16:58.732Z,96471.33
2019-02-23T13:19:22.987Z,96477.92
2019-02-23T13:21:49.009Z,96478.91
2019-02-23T13:24:15.002Z,96478.68
2019-02-23T13:26:41.002Z,96482.53
2019-02-23T13:29:07.001Z,96485.62
2019-02-23T13:31:33.057Z,96480.37
2019-02-23T13:34:00.124Z,96480.75
2019-02-23T13:36:25.078Z,96480.12
2019-02-23T13:38:51.076Z,96487.94
2019-02-23T13:41:17.092Z,96483.94
2019-02-23T13:43:43.090Z,96495.55
2019-02-23T13:46:09.110Z,96485.20
2019-02-23T13:48:35.143Z,96493.02
2019-02-23T13:51:01.104Z,96489.02
2019-02-23T13:53:27.151Z,96494.61
2019-02-23T13:55:53.169Z,96495.35
2019-02-23T13:58:19.181Z,96494.36
2019-02-23T14:00:45.200Z,96501.77
2019-02-23T14:03:11.245Z,96493.87
2019-02-23T14:05:37.253Z,96494.67
2019-02-23T14:08:03.307Z,96494.61
2019-02-23T14:10:29.302Z,96495.10
2019-02-23T14:12:55.329Z,96498.93
2019-02-23T14:15:21.331Z,96500.69
2019-02-23T14:17:47.327Z,96506.36
2019-02-23T14:20:13.331Z,96513.27
2019-02-23T14:22:39.329Z,96515.36
2019-02-23T14:25:05.334Z,96515.11
2019-02-23T14:27:31.357Z,96522.30
2019-02-23T14:29:57.804Z,96520.69
2019-02-23T14:32:23.794Z,96520.86
2019-02-23T14:34:49.793Z,96524.18
2019-02-23T14:37:15.812Z,96522.95
2019-02-23T14:39:41.880Z,96521.43
2019-02-23T14:42:07.834Z,96524.09
2019-02-23T14:44:33.878Z,96522.77
2019-02-23T14:46:59.873Z,96529.18
2019-02-23T14:49:27.824Z,96524.79
2019-02-23T14:51:51.858Z,96524.54
2019-02-23T14:54:17.872Z,96529.02
2019-02-23T14:56:43.964Z,96525.86
2019-02-23T14:59:09.951Z,96531.11
2019-02-23T15:01:36.049Z,96533.78
2019-02-23T15:04:05.135Z,96535.92
2019-02-23T15:06:31.154Z,96539.92
2019-02-23T15:08:57.151Z,96540.18
2019-02-23T15:11:23.159Z,96547.69
2019-02-23T15:13:49.231Z,96545.09
2019-02-23T15:16:17.444Z,96549.84
2019-02-23T15:18:41.284Z,96559.59
2019-02-23T15:21:07.336Z,96561.36
2019-02-23T15:23:33.335Z,96561.84
2019-02-23T15:25:59.683Z,96573.59
2019-02-23T15:28:37.261Z,96571.83
2019-02-23T15:30:51.693Z,96577.27
2019-02-23T15:33:18.069Z,96581.86
2019-02-23T15:35:44.107Z,96583.68
2019-02-23T15:38:10.273Z,96592.27
2019-02-23T15:40:36.313Z,96593.92
2019-02-23T15:43:02.278Z,96597.66
2019-02-23T15:45:28.471Z,96592.66
2019-02-23T15:47:54.557Z,96598.67
2019-02-23T15:50:20.628Z,96593.02
2019-02-23T15:52:46.595Z,96602.00
2019-02-23T15:55:25.152Z,96599.27
2019-02-23T15:57:38.758Z,96604.17
2019-02-23T16:00:04.736Z,96605.61
2019-02-23T16:02:32.371Z,96610.42
2019-02-23T16:04:58.403Z,96614.09
2019-02-23T16:07:24.388Z,96605.25
2019-02-23T16:09:50.460Z,96610.34
2019-02-23T16:12:16.409Z,96617.67
2019-02-23T16:14:42.406Z,96615.17
2019-02-23T16:17:08.420Z,96623.75
2019-02-23T16:19:34.410Z,96638.16
2019-02-23T16:22:00.425Z,96632.73
2019-02-23T16:24:26.585Z,96640.08
2019-02-23T16:26:52.599Z,96639.83
2019-02-23T16:29:18.966Z,96649.05
2019-02-23T16:31:45.128Z,96654.06
2019-02-23T16:34:11.176Z,96646.97
2019-02-23T16:36:37.372Z,96657.64
2019-02-23T16:39:03.366Z,96661.57
2019-02-23T16:41:29.390Z,96667.39
2019-02-23T16:43:55.384Z,96665.14
2019-02-23T16:46:21.733Z,96665.56
2019-02-23T16:48:47.780Z,96675.55
2019-02-23T16:51:13.796Z,96680.81
2019-02-23T16:53:39.807Z,96681.37
2019-02-23T16:56:06.289Z,96689.78
2019-02-23T16:58:32.325Z,96683.71
2019-02-23T17:00:58.409Z,96682.38
2019-02-23T17:03:24.524Z,96688.20
2019-02-23T17:06:02.997Z,96692.13
2019-02-23T17:08:29.041Z,96693.53
2019-02-23T17:11:05.263Z,96688.95
2019-02-23T17:13:31.372Z,96690.47
2019-02-23T17:15:57.373Z,96690.22
2019-02-23T17:18:23.393Z,96692.29
2019-02-23T17:20:49.401Z,96690.05
2019-02-23T17:23:15.412Z,96690.47
2019-02-23T17:25:41.424Z,96695.80
2019-02-23T17:28:07.429Z,96690.95
2019-02-23T17:30:33.452Z,96697.52
2019-02-23T17:32:59.503Z,96691.55
2019-02-23T17:35:25.526Z,96692.13
2019-02-23T17:37:51.541Z,96698.11
2019-02-23T17:40:17.539Z,96694.02
2019-02-23T17:42:44.668Z,96699.61
2019-02-23T17:45:10.663Z,96701.85
2019-02-23T17:47:36.679Z,96709.36
2019-02-23T17:50:02.716Z,96710.70
2019-02-23T17:52:28.720Z,96710.17
2019-02-23T17:54:54.728Z,96705.20
2019-02-23T17:57:20.724Z,96702.53
2019-02-23T17:59:46.761Z,96703.45
2019-02-23T18:02:12.753Z,96700.94
2019-02-23T18:04:38.752Z,96709.84
2019-02-23T18:07:05.738Z,96712.77
2019-02-23T18:09:30.793Z,96710.27
2019-02-23T18:11:58.448Z,96715.50
2019-02-23T18:14:23.123Z,96711.61
2019-02-23T18:16:49.136Z,96709.49
2019-02-23T18:19:15.137Z,96708.52
2019-02-23T18:21:41.162Z,96715.92
2019-02-23T18:24:07.166Z,96710.59
2019-02-23T18:26:36.054Z,96705.43
2019-02-23T18:29:02.147Z,96712.52
2019-02-23T18:31:28.142Z,96715.11
2019-02-23T18:33:54.155Z,96712.34
2019-02-23T18:36:20.147Z,96710.70
2019-02-23T18:38:46.154Z,96717.00
2019-02-23T18:41:12.194Z,96716.02
2019-02-23T18:43:38.201Z,96725.25
2019-02-23T18:46:05.430Z,96719.66
2019-02-23T18:48:30.215Z,96726.16
2019-02-23T18:50:56.248Z,96726.42
2019-02-23T18:53:22.240Z,96727.00
2019-02-23T18:55:48.236Z,96729.67
2019-02-23T18:58:14.232Z,96727.66
2019-02-23T19:00:40.479Z,96732.83
2019-02-23T19:03:06.478Z,96730.74
2019-02-23T19:05:32.493Z,96736.01
2019-02-23T19:07:58.495Z,96742.73
2019-02-23T19:10:24.661Z,96744.59
2019-02-23T19:12:50.665Z,96751.25
2019-02-23T19:15:16.939Z,96750.24
2019-02-23T19:17:42.941Z,96754.31
2019-02-23T19:20:09.382Z,96749.98
2019-02-23T19:22:35.382Z,96749.08
2019-02-23T19:25:01.397Z,96746.15
2019-02-23T19:27:27.407Z,96741.41
2019-02-23T19:29:53.432Z,96759.15
2019-02-23T19:32:19.419Z,96752.06
2019-02-23T19:34:45.477Z,96750.31
2019-02-23T19:37:11.508Z,96749.08
2019-02-23T19:39:37.521Z,96757.66
2019-02-23T19:42:03.523Z,96758.14
2019-02-23T19:44:30.709Z,96749.56
2019-02-23T19:46:55.534Z,96752.65
2019-02-23T19:49:21.543Z,96750.73
2019-02-23T19:51:47.585Z,96755.09
2019-02-23T19:54:13.876Z,96755.48
2019-02-23T19:56:46.687Z,96753.39
2019-02-23T19:59:05.550Z,96747.97
2019-02-23T20:01:31.614Z,96751.58
2019-02-23T20:03:57.633Z,96744.59
2019-02-23T20:06:23.638Z,96744.07
2019-02-23T20:08:49.963Z,96745.92
2019-02-23T20:11:17.846Z,96748.59
2019-02-23T20:13:43.847Z,96742.48
2019-02-23T20:16:09.874Z,96744.23
2019-02-23T20:18:35.866Z,96749.14
2019-02-23T20:21:01.926Z,96748.06
2019-02-23T20:23:27.932Z,96751.58
2019-02-23T20:25:53.932Z,96751.80
2019-02-23T20:28:19.930Z,96757.30
2019-02-23T20:30:45.966Z,96752.55
2019-02-23T20:33:11.957Z,96757.55
2019-02-23T20:35:37.999Z,96764.13
2019-02-23T20:38:04.004Z,96761.36
2019-02-23T20:40:30.016Z,96762.30
2019-02-23T20:42:56.153Z,96766.20
2019-02-23T20:45:22.160Z,96764.87
2019-02-23T20:47:48.160Z,96760.61
2019-02-23T20:50:14.162Z,96758.47
2019-02-23T20:52:40.162Z,96757.52
2019-02-23T20:55:06.180Z,96757.20
2019-02-23T20:57:32.192Z,96755.02
2019-02-23T20:59:58.187Z,96749.04
2019-02-23T21:02:24.183Z,96757.94
2019-02-23T21:04:50.174Z,96753.45
2019-02-23T21:07:16.187Z,96755.27
2019-02-23T21:09:42.180Z,96752.19
2019-02-23T21:12:08.184Z,96760.28
2019-02-23T21:14:34.181Z,96754.53
2019-02-23T21:17:00.187Z,96747.12
2019-02-23T21:19:26.188Z,96751.18
2019-02-23T21:21:52.191Z,96745.95
2019-02-23T21:24:18.191Z,96746.02
2019-02-23T21:26:44.200Z,96749.59
2019-02-23T21:29:10.215Z,96742.34
2019-02-23T21:31:36.219Z,96749.16
2019-02-23T21:34:02.212Z,96744.78
2019-02-23T21:36:28.215Z,96738.12
2019-02-23T21:38:54.215Z,96734.61
2019-02-23T21:41:20.214Z,96733.34
2019-02-23T21:43:46.214Z,96737.44
2019-02-23T21:46:13.924Z,96741.92
2019-02-23T21:48:38.212Z,96735.20
2019-02-23T21:51:04.211Z,96734.34
2019-02-23T21:53:30.251Z,96740.68
2019-02-23T21:55:56.220Z,96739.41
2019-02-23T21:58:22.224Z,96742.98
2019-02-23T22:00:48.229Z,96741.59
2019-02-23T22:03:14.224Z,96733.77
2019-02-23T22:05:40.218Z,96732.85
2019-02-23T22:08:06.221Z,96726.78
2019-02-23T22:10:32.311Z,96731.16
2019-02-23T22:12:58.227Z,96729.83
2019-02-23T22:15:24.224Z,96733.50
2019-02-23T22:17:50.227Z,96727.27
2019-02-23T22:20:16.224Z,96731.69
2019-02-23T22:22:42.248Z,96727.75
2019-02-23T22:25:08.248Z,96729.24
2019-02-23T22:27:34.273Z,96736.75
2019-02-23T22:30:00.504Z,96735.91
2019-02-23T22:32:26.249Z,96731.91
2019-02-23T22:34:52.249Z,96734.15
2019-02-23T22:37:18.276Z,96733.83
2019-02-23T22:39:44.293Z,96730.31
2019-02-23T22:42:10.287Z,96734.73
2019-02-23T22:44:36.289Z,96735.58
2019-02-23T22:47:02.278Z,96733.14
2019-02-23T22:49:28.298Z,96735.73
2019-02-23T22:51:54.296Z,96734.47
2019-02-23T22:54:20.294Z,96727.81
2019-02-23T22:56:46.300Z,96731.38
2019-02-23T22:59:12.296Z,96732.72
2019-02-23T23:01:38.301Z,96733.23
2019-02-23T23:04:04.295Z,96735.48
2019-02-23T23:06:30.310Z,96730.57
2019-02-23T23:08:56.305Z,96734.56
2019-02-23T23:11:22.324Z,96732.97
2019-02-23T23:13:48.323Z,96730.31
2019-02-23T23:16:14.318Z,96725.98
2019-02-23T23:18:40.315Z,96725.41
2019-02-23T23:21:06.309Z,96727.32
2019-02-23T23:23:32.312Z,96736.28
2019-02-23T23:25:58.312Z,96734.37
2019-02-23T23:28:24.334Z,96731.70
2019-02-23T23:30:50.347Z,96733.13
2019-02-23T23:33:16.352Z,96733.55
2019-02-23T23:35:42.348Z,96730.14
2019-02-23T23:38:08.363Z,96735.31
2019-02-23T23:40:34.358Z,96730.20
2019-02-23T23:43:00.368Z,96735.95
2019-02-23T23:45:26.371Z,96739.53
2019-02-23T23:47:52.426Z,96747.52
2019-02-23T23:50:18.425Z,96739.53
2019-02-23T23:52:44.418Z,96747.20
2019-02-23T23:55:11.628Z,96754.27
2019-02-23T23:57:36.422Z,96743.69
